Time;durP1;ratioP1;P1;durP2;ratioP2;P2;SDS_P1;SDS_P2;PMS_P1;PMS_P2;Temp;Humidity;BMP_temperature;BMP_pressure;BME280_temperature;BME280_humidity;BME280_pressure;Samples;Min_cycle;Max_cycle;Signal;HPM_P1;HPM_P2
2021/03/04 06:17:53;;;;;;;64.60;29.90;;;;;;;;;;5044139;22;20044;-66
2021/03/04 06:20:19;;;;;;;60.85;29.88;;;;;;;;;;5039687;28;20035;-64
2021/03/04 06:22:48;;;;;;;68.18;32.63;;;;;;;;;;5073412;28;20052;-64
2021/03/04 06:25:15;;;;;;;70.07;32.13;;;;;;;;;;5073297;28;20466;-65
2021/03/04 06:27:42;;;;;;;80.03;39.50;;;;;;;;;;5073658;28;20387;-63
2021/03/04 06:30:09;;;;;;;78.03;34.45;;;;;;;;;;5073960;28;20031;-63
2021/03/04 06:32:36;;;;;;;72.60;34.90;;;;;;;;;;5073457;28;20025;-65
2021/03/04 06:35:14;;;;;;;75.60;32.70;;;;;;;;;;5073593;28;20032;-65
2021/03/04 06:37:44;;;;;;;65.72;33.22;;;;;;;;;;5072744;28;20032;-64
2021/03/04 06:40:21;;;;;;;79.28;35.85;;;;;;;;;;5073206;28;20032;-64
2021/03/04 06:42:47;;;;;;;68.57;34.10;;;;;;;;;;5073578;28;20021;-64
2021/03/04 06:45:27;;;;;;;74.05;36.88;;;;;;;;;;5073384;28;20029;-64
2021/03/04 06:48:14;;;;;;;73.70;36.95;;;;;;;;;;5073210;28;20051;-65
2021/03/04 06:50:41;;;;;;;77.63;37.70;;;;;;;;;;5072748;28;20100;-64
2021/03/04 06:53:14;;;;;;;66.72;37.33;;;;;;;;;;5073410;28;20048;-64
2021/03/04 06:55:47;;;;;;;75.68;37.33;;;;;;;;;;5055740;28;20467;-65
2021/03/04 06:58:13;;;;;;;68.00;36.20;;;;;;;;;;5073247;28;20103;-64
2021/03/04 07:00:40;;;;;;;72.55;37.92;;;;;;;;;;5073657;28;20099;-65
2021/03/04 07:03:06;;;;;;;71.93;37.67;;;;;;;;;;5069269;28;20399;-64
2021/03/04 07:05:32;;;;;;;69.40;36.33;;;;;;;;;;5060751;28;20017;-66
2021/03/04 07:07:58;;;;;;;73.40;35.92;;;;;;;;;;5062091;28;20055;-65
2021/03/04 07:10:25;;;;;;;74.40;36.72;;;;;;;;;;5062815;28;20024;-65
2021/03/04 07:12:51;;;;;;;72.22;37.17;;;;;;;;;;5060661;28;20027;-64
2021/03/04 07:15:19;;;;;;;70.82;37.15;;;;;;;;;;5062068;28;20058;-63
2021/03/04 07:17:47;;;;;;;66.05;35.78;;;;;;;;;;5062922;28;20048;-64
2021/03/04 07:20:14;;;;;;;76.38;36.97;;;;;;;;;;5060879;28;20060;-63
2021/03/04 07:22:42;;;;;;;73.78;34.63;;;;;;;;;;5061597;28;20053;-63
2021/03/04 07:25:10;;;;;;;65.30;32.88;;;;;;;;;;5062901;28;20028;-63
2021/03/04 07:27:36;;;;;;;56.88;32.20;;;;;;;;;;5061523;28;20029;-63
2021/03/04 07:30:03;;;;;;;55.75;30.58;;;;;;;;;;5064808;28;20154;-64
2021/03/04 07:32:29;;;;;;;59.55;30.42;;;;;;;;;;5060755;28;20471;-65
2021/03/04 07:34:55;;;;;;;54.65;30.90;;;;;;;;;;5061889;28;20048;-66
2021/03/04 07:37:21;;;;;;;60.67;31.10;;;;;;;;;;5062216;28;20017;-66
2021/03/04 07:39:57;;;;;;;57.13;31.13;;;;;;;;;;5060681;28;20025;-66
2021/03/04 07:42:24;;;;;;;53.55;29.23;;;;;;;;;;5060727;28;20522;-66
2021/03/04 07:44:50;;;;;;;54.08;28.65;;;;;;;;;;5062457;28;20024;-66
2021/03/04 07:47:24;;;;;;;51.95;29.17;;;;;;;;;;5063453;28;20028;-66
2021/03/04 07:49:50;;;;;;;61.13;31.40;;;;;;;;;;5066851;28;20036;-66
2021/03/04 07:52:24;;;;;;;52.08;28.27;;;;;;;;;;5065035;28;20187;-65
2021/03/04 07:54:54;;;;;;;49.42;27.88;;;;;;;;;;5064087;28;20456;-66
2021/03/04 07:57:23;;;;;;;54.10;28.40;;;;;;;;;;5065056;28;20120;-65
2021/03/04 07:59:52;;;;;;;57.28;29.10;;;;;;;;;;5066297;28;20023;-65
2021/03/04 08:02:22;;;;;;;51.40;28.67;;;;;;;;;;5064909;28;20021;-66
2021/03/04 08:04:48;;;;;;;51.08;28.25;;;;;;;;;;5063948;28;20079;-65
2021/03/04 08:07:24;;;;;;;50.53;28.58;;;;;;;;;;5045193;28;20025;-65
2021/03/04 08:09:50;;;;;;;51.92;28.13;;;;;;;;;;5060974;28;20017;-66
2021/03/04 08:12:16;;;;;;;51.35;27.83;;;;;;;;;;5068046;28;20029;-72
2021/03/04 08:14:53;;;;;;;48.58;27.65;;;;;;;;;;5067260;28;20104;-68
2021/03/04 08:17:20;;;;;;;50.35;28.70;;;;;;;;;;5066742;28;20041;-67
2021/03/04 08:19:47;;;;;;;50.92;27.70;;;;;;;;;;5075663;28;20033;-68
2021/03/04 08:22:16;;;;;;;48.72;28.20;;;;;;;;;;5075173;28;20032;-66
2021/03/04 08:24:43;;;;;;;47.15;28.27;;;;;;;;;;5075606;28;20466;-67
2021/03/04 08:27:09;;;;;;;49.80;27.80;;;;;;;;;;5074550;28;20043;-67
2021/03/04 08:29:35;;;;;;;54.10;28.35;;;;;;;;;;5072893;28;20021;-67
2021/03/04 08:32:03;;;;;;;53.83;28.35;;;;;;;;;;5072661;28;20028;-67
2021/03/04 08:34:37;;;;;;;50.05;28.88;;;;;;;;;;5073412;28;20028;-65
2021/03/04 08:37:05;;;;;;;48.47;28.90;;;;;;;;;;5057134;28;20043;-66
2021/03/04 08:39:35;;;;;;;52.25;29.40;;;;;;;;;;5074695;28;20426;-68
2021/03/04 08:42:10;;;;;;;48.45;27.15;;;;;;;;;;5075219;28;20028;-69
2021/03/04 08:44:37;;;;;;;44.25;26.38;;;;;;;;;;5074878;28;20111;-65
2021/03/04 08:47:03;;;;;;;48.17;27.40;;;;;;;;;;5075088;28;20028;-65
2021/03/04 08:49:29;;;;;;;47.17;27.00;;;;;;;;;;5075378;28;20020;-67
2021/03/04 08:51:57;;;;;;;40.70;25.42;;;;;;;;;;5075374;28;20024;-67
2021/03/04 08:54:27;;;;;;;46.47;26.20;;;;;;;;;;5075017;28;20426;-67
2021/03/04 08:57:05;;;;;;;41.90;24.67;;;;;;;;;;5074849;28;20521;-64
2021/03/04 08:59:31;;;;;;;42.90;25.23;;;;;;;;;;5074632;28;20361;-67
2021/03/04 09:01:59;;;;;;;44.47;24.77;;;;;;;;;;5075283;28;20039;-68
2021/03/04 09:04:26;;;;;;;46.10;25.27;;;;;;;;;;5075005;28;20027;-66
2021/03/04 09:06:53;;;;;;;43.03;23.73;;;;;;;;;;5075443;28;20083;-67
2021/03/04 09:09:23;;;;;;;44.70;25.00;;;;;;;;;;5075359;28;20032;-67
2021/03/04 09:11:52;;;;;;;42.42;25.10;;;;;;;;;;5073929;28;20013;-66
2021/03/04 09:14:18;;;;;;;37.63;25.23;;;;;;;;;;5073455;28;20028;-65
2021/03/04 09:16:51;;;;;;;41.42;23.77;;;;;;;;;;5073453;28;20040;-66
2021/03/04 09:19:35;;;;;;;37.17;22.23;;;;;;;;;;5072890;28;20341;-71
2021/03/04 09:22:04;;;;;;;40.53;22.52;;;;;;;;;;5070246;28;20074;-66
2021/03/04 09:24:32;;;;;;;37.17;21.95;;;;;;;;;;5072824;28;20028;-66
2021/03/04 09:26:58;;;;;;;38.72;22.92;;;;;;;;;;5072070;28;20067;-66
2021/03/04 09:29:25;;;;;;;37.50;22.33;;;;;;;;;;5072216;28;20020;-67
2021/03/04 09:31:55;;;;;;;40.33;22.38;;;;;;;;;;5072176;28;20154;-67
2021/03/04 09:34:34;;;;;;;36.08;21.60;;;;;;;;;;5070831;28;20023;-70
2021/03/04 09:37:07;;;;;;;36.58;20.77;;;;;;;;;;5072327;28;20024;-67
2021/03/04 09:39:37;;;;;;;33.10;20.52;;;;;;;;;;5070807;28;20020;-66
2021/03/04 09:42:03;;;;;;;36.53;19.70;;;;;;;;;;5070810;28;20074;-66
2021/03/04 09:44:29;;;;;;;36.75;22.52;;;;;;;;;;5072631;28;20045;-66
2021/03/04 09:47:01;;;;;;;36.60;22.10;;;;;;;;;;5073517;28;20108;-68
2021/03/04 09:49:33;;;;;;;36.08;20.42;;;;;;;;;;5073160;28;20090;-66
2021/03/04 09:51:59;;;;;;;33.90;19.85;;;;;;;;;;5073121;28;21472;-66
2021/03/04 09:54:26;;;;;;;30.58;19.58;;;;;;;;;;5073060;28;20029;-66
2021/03/04 09:57:02;;;;;;;32.42;18.85;;;;;;;;;;5073134;28;20055;-65
2021/03/04 09:59:28;;;;;;;32.58;19.45;;;;;;;;;;5052860;28;20020;-66
2021/03/04 10:01:55;;;;;;;36.47;19.33;;;;;;;;;;5072448;28;20024;-65
2021/03/04 10:04:27;;;;;;;34.97;19.60;;;;;;;;;;5070246;28;20009;-66
2021/03/04 10:06:53;;;;;;;35.58;20.55;;;;;;;;;;5072992;28;20371;-67
2021/03/04 10:09:28;;;;;;;28.58;17.63;;;;;;;;;;5072109;28;20024;-65
2021/03/04 10:11:54;;;;;;;26.75;17.50;;;;;;;;;;5071777;28;20031;-66
2021/03/04 10:14:20;;;;;;;33.63;17.05;;;;;;;;;;5072241;28;20367;-71
2021/03/04 10:16:56;;;;;;;30.65;16.65;;;;;;;;;;5072805;28;20081;-66
2021/03/04 10:19:22;;;;;;;32.90;19.20;;;;;;;;;;5070600;28;20069;-66
2021/03/04 10:21:48;;;;;;;34.08;18.80;;;;;;;;;;5072400;28;20025;-66
2021/03/04 10:24:14;;;;;;;35.30;18.58;;;;;;;;;;5072339;28;20375;-66
2021/03/04 10:26:41;;;;;;;30.73;18.25;;;;;;;;;;5072548;28;20025;-66
2021/03/04 10:29:07;;;;;;;32.08;19.25;;;;;;;;;;5072143;28;20077;-67
2021/03/04 10:31:33;;;;;;;37.13;19.90;;;;;;;;;;5072260;28;20033;-66
2021/03/04 10:33:59;;;;;;;34.90;20.95;;;;;;;;;;5072247;28;20116;-66
2021/03/04 10:36:25;;;;;;;35.60;20.83;;;;;;;;;;5072077;28;20020;-66
2021/03/04 10:38:53;;;;;;;36.47;20.65;;;;;;;;;;5072525;28;20060;-69
2021/03/04 10:41:19;;;;;;;33.97;18.70;;;;;;;;;;5069831;28;20464;-66
2021/03/04 10:43:45;;;;;;;30.55;17.65;;;;;;;;;;5072126;28;20064;-66
2021/03/04 10:46:11;;;;;;;26.33;16.25;;;;;;;;;;5067098;28;20028;-67
2021/03/04 10:48:37;;;;;;;25.52;16.35;;;;;;;;;;5072160;28;20023;-67
2021/03/04 10:51:04;;;;;;;29.27;17.35;;;;;;;;;;5071787;28;20029;-66
2021/03/04 10:53:30;;;;;;;27.67;15.38;;;;;;;;;;5072280;28;20040;-64
2021/03/04 10:56:02;;;;;;;26.48;15.73;;;;;;;;;;5071899;28;20414;-65
2021/03/04 10:58:30;;;;;;;27.42;16.98;;;;;;;;;;5071746;28;20063;-64
2021/03/04 11:00:56;;;;;;;28.60;16.48;;;;;;;;;;5072185;28;20036;-66
2021/03/04 11:03:22;;;;;;;26.13;16.05;;;;;;;;;;5071107;28;20483;-66
2021/03/04 11:05:48;;;;;;;23.70;14.85;;;;;;;;;;5072414;28;20120;-66
2021/03/04 11:08:14;;;;;;;26.73;15.43;;;;;;;;;;5055348;28;20029;-67
2021/03/04 11:10:40;;;;;;;29.50;15.32;;;;;;;;;;5072328;28;20025;-67
2021/03/04 11:13:06;;;;;;;24.58;14.95;;;;;;;;;;5072499;28;20033;-65
2021/03/04 11:15:32;;;;;;;22.15;14.13;;;;;;;;;;5071978;28;20021;-68
2021/03/04 11:18:04;;;;;;;24.17;14.60;;;;;;;;;;5072000;28;20052;-67
2021/03/04 11:20:31;;;;;;;24.08;14.85;;;;;;;;;;5053024;28;20024;-66
2021/03/04 11:23:36;;;;;;;24.90;14.82;;;;;;;;;;5073255;28;20016;-67
2021/03/04 11:26:02;;;;;;;24.40;14.65;;;;;;;;;;5074094;28;20016;-65
2021/03/04 11:28:28;;;;;;;71.25;35.17;;;;;;;;;;5076534;28;20060;-65
2021/03/04 11:30:54;;;;;;;43.17;24.13;;;;;;;;;;5073667;28;20103;-67
2021/03/04 11:33:22;;;;;;;29.63;18.77;;;;;;;;;;5069671;28;20020;-67
2021/03/04 11:35:48;;;;;;;29.58;19.20;;;;;;;;;;5075280;28;20044;-68
2021/03/04 11:38:14;;;;;;;33.85;18.42;;;;;;;;;;5076099;28;20027;-66
2021/03/04 11:40:40;;;;;;;33.22;17.83;;;;;;;;;;5075811;28;20016;-65
2021/03/04 11:43:06;;;;;;;31.60;17.95;;;;;;;;;;5074061;28;20035;-67
2021/03/04 11:45:32;;;;;;;35.90;19.00;;;;;;;;;;5075956;28;20040;-68
2021/03/04 11:47:59;;;;;;;32.17;20.13;;;;;;;;;;5075590;28;20467;-67
2021/03/04 11:50:25;;;;;;;33.17;19.05;;;;;;;;;;5075687;28;20035;-68
2021/03/04 11:52:51;;;;;;;28.38;17.48;;;;;;;;;;5075585;28;20032;-66
2021/03/04 11:55:17;;;;;;;32.85;19.08;;;;;;;;;;5076606;28;20100;-66
2021/03/04 11:57:43;;;;;;;38.83;21.40;;;;;;;;;;5075599;28;20024;-66
2021/03/04 12:00:10;;;;;;;31.10;18.05;;;;;;;;;;5073842;28;20029;-66
2021/03/04 12:02:36;;;;;;;26.67;16.58;;;;;;;;;;5075482;28;20025;-65
2021/03/04 12:05:02;;;;;;;29.30;16.63;;;;;;;;;;5076515;28;20043;-66
2021/03/04 12:07:29;;;;;;;26.17;17.48;;;;;;;;;;5075640;28;20036;-66
2021/03/04 12:09:55;;;;;;;24.45;15.63;;;;;;;;;;5075583;28;20008;-67
2021/03/04 12:12:23;;;;;;;28.70;17.98;;;;;;;;;;5075057;28;20072;-68
2021/03/04 12:14:49;;;;;;;23.98;14.68;;;;;;;;;;5074295;28;20480;-68
2021/03/04 12:17:15;;;;;;;25.88;15.88;;;;;;;;;;5057195;28;20040;-66
2021/03/04 12:19:42;;;;;;;24.90;16.23;;;;;;;;;;5072893;28;20475;-68
2021/03/04 12:22:08;;;;;;;24.50;14.98;;;;;;;;;;5074444;28;20565;-68
2021/03/04 12:24:36;;;;;;;23.23;14.27;;;;;;;;;;5075445;28;20025;-66
2021/03/04 12:27:07;;;;;;;26.88;15.73;;;;;;;;;;5055397;28;20039;-66
2021/03/04 12:29:33;;;;;;;21.33;12.75;;;;;;;;;;5075277;28;20021;-68
2021/03/04 12:31:59;;;;;;;19.95;12.70;;;;;;;;;;5074702;28;20033;-67
2021/03/04 12:34:25;;;;;;;23.02;12.30;;;;;;;;;;5073596;28;20021;-66
2021/03/04 12:36:51;;;;;;;20.38;11.90;;;;;;;;;;5074433;28;20035;-67
2021/03/04 12:39:18;;;;;;;18.38;10.93;;;;;;;;;;5075579;28;20051;-66
2021/03/04 12:41:44;;;;;;;14.93;10.80;;;;;;;;;;5075151;28;20031;-67
2021/03/04 12:44:11;;;;;;;20.92;12.07;;;;;;;;;;5075868;28;20029;-66
2021/03/04 12:46:37;;;;;;;18.15;9.88;;;;;;;;;;5075408;28;20024;-68
2021/03/04 12:49:03;;;;;;;17.58;10.77;;;;;;;;;;5075391;28;20085;-67
2021/03/04 12:51:29;;;;;;;14.55;9.65;;;;;;;;;;5075973;28;20077;-67
2021/03/04 12:53:55;;;;;;;16.35;9.55;;;;;;;;;;5075603;28;20031;-66
2021/03/04 12:56:21;;;;;;;16.25;9.20;;;;;;;;;;5075654;28;20051;-66
2021/03/04 12:58:47;;;;;;;16.63;8.57;;;;;;;;;;5075352;28;20029;-67
2021/03/04 13:01:14;;;;;;;12.80;8.27;;;;;;;;;;5075923;28;20027;-68
2021/03/04 13:03:41;;;;;;;14.30;8.30;;;;;;;;;;5074728;28;20058;-66
2021/03/04 13:06:07;;;;;;;16.08;8.82;;;;;;;;;;5075633;28;20527;-68
2021/03/04 13:08:33;;;;;;;11.55;7.45;;;;;;;;;;5075310;28;20414;-68
2021/03/04 13:10:59;;;;;;;12.77;8.10;;;;;;;;;;5074991;28;20078;-67
2021/03/04 13:13:25;;;;;;;17.48;9.73;;;;;;;;;;5075156;28;20016;-70
2021/03/04 13:15:51;;;;;;;16.10;9.00;;;;;;;;;;5075314;28;20074;-67
2021/03/04 13:18:17;;;;;;;16.73;10.32;;;;;;;;;;5075053;28;20048;-66
2021/03/04 13:20:44;;;;;;;17.85;10.25;;;;;;;;;;5074926;28;20024;-66
2021/03/04 13:23:10;;;;;;;12.75;8.05;;;;;;;;;;5074779;28;20066;-69
2021/03/04 13:25:36;;;;;;;14.82;8.23;;;;;;;;;;5074704;28;20027;-68
2021/03/04 13:28:02;;;;;;;13.90;7.07;;;;;;;;;;5074289;28;20031;-68
2021/03/04 13:30:28;;;;;;;13.35;7.68;;;;;;;;;;5071231;28;20519;-67
2021/03/04 13:32:54;;;;;;;12.27;7.25;;;;;;;;;;5074741;28;20443;-67
2021/03/04 13:35:20;;;;;;;12.77;7.95;;;;;;;;;;5074805;28;20028;-66
2021/03/04 13:37:46;;;;;;;16.10;7.63;;;;;;;;;;5074231;28;20031;-66
2021/03/04 13:40:13;;;;;;;11.38;7.97;;;;;;;;;;5074692;28;20031;-66
2021/03/04 13:42:39;;;;;;;13.32;7.45;;;;;;;;;;5074373;28;20024;-67
2021/03/04 13:45:07;;;;;;;13.05;7.65;;;;;;;;;;5074026;28;20467;-70
2021/03/04 13:47:33;;;;;;;12.15;7.63;;;;;;;;;;5073511;28;20078;-68
2021/03/04 13:50:00;;;;;;;15.35;9.23;;;;;;;;;;5072666;28;20028;-66
2021/03/04 13:52:27;;;;;;;11.07;7.20;;;;;;;;;;5072503;28;20021;-67
2021/03/04 13:54:53;;;;;;;13.45;7.10;;;;;;;;;;5072776;28;20132;-66
2021/03/04 13:57:19;;;;;;;12.05;7.22;;;;;;;;;;5072940;28;20540;-66
2021/03/04 13:59:45;;;;;;;14.15;6.85;;;;;;;;;;5072175;28;20044;-66
2021/03/04 14:02:11;;;;;;;14.30;7.68;;;;;;;;;;5072014;28;20025;-65
2021/03/04 14:04:37;;;;;;;13.23;7.50;;;;;;;;;;5071914;28;20029;-67
2021/03/04 14:07:06;;;;;;;11.63;6.80;;;;;;;;;;5072223;28;20425;-66
2021/03/04 14:09:32;;;;;;;16.23;6.97;;;;;;;;;;5070958;28;20067;-68
2021/03/04 14:11:58;;;;;;;10.73;6.60;;;;;;;;;;5072284;28;20477;-66
2021/03/04 14:14:24;;;;;;;12.52;6.80;;;;;;;;;;5071573;28;20036;-65
2021/03/04 14:16:50;;;;;;;10.15;6.50;;;;;;;;;;5069236;28;20463;-66
2021/03/04 14:19:23;;;;;;;12.40;6.32;;;;;;;;;;5071202;28;20028;-66
2021/03/04 14:21:51;;;;;;;;;;;;;;;;;;5070676;28;20028;-67
2021/03/04 14:24:24;;;;;;;9.98;6.57;;;;;;;;;;5071920;28;20354;-67
2021/03/04 14:26:50;;;;;;;13.38;6.97;;;;;;;;;;5071030;28;20036;-68
2021/03/04 14:29:16;;;;;;;19.45;9.43;;;;;;;;;;5070086;28;20352;-65
2021/03/04 14:31:43;;;;;;;11.38;6.85;;;;;;;;;;5072236;28;20364;-67
2021/03/04 14:34:09;;;;;;;10.77;6.95;;;;;;;;;;5071054;28;20105;-66
2021/03/04 14:36:35;;;;;;;15.48;8.32;;;;;;;;;;5071868;28;20020;-65
2021/03/04 14:39:01;;;;;;;11.25;6.15;;;;;;;;;;5055192;28;20039;-67
2021/03/04 14:41:27;;;;;;;12.18;6.82;;;;;;;;;;5072271;28;20433;-66
2021/03/04 14:43:54;;;;;;;13.38;7.82;;;;;;;;;;5072671;28;20034;-64
2021/03/04 14:46:20;;;;;;;12.63;7.38;;;;;;;;;;5072729;28;20024;-65
2021/03/04 14:48:46;;;;;;;14.45;7.70;;;;;;;;;;5071181;28;20025;-64
2021/03/04 14:51:12;;;;;;;19.50;9.70;;;;;;;;;;5072053;28;20020;-63
2021/03/04 14:53:38;;;;;;;13.43;7.03;;;;;;;;;;5073311;28;20032;-67
2021/03/04 14:56:05;;;;;;;14.55;7.18;;;;;;;;;;5072961;28;20035;-68
2021/03/04 14:58:31;;;;;;;11.90;7.78;;;;;;;;;;5072963;28;20036;-66
2021/03/04 15:00:57;;;;;;;16.08;7.43;;;;;;;;;;5072490;28;20421;-65
2021/03/04 15:03:23;;;;;;;14.27;7.65;;;;;;;;;;5070690;28;20028;-66
2021/03/04 15:05:49;;;;;;;20.60;10.95;;;;;;;;;;5070251;28;20028;-65
2021/03/04 15:08:15;;;;;;;15.48;7.63;;;;;;;;;;5070816;28;20028;-66
2021/03/04 15:10:41;;;;;;;13.68;7.03;;;;;;;;;;5070601;28;20017;-66
2021/03/04 15:13:07;;;;;;;17.48;7.57;;;;;;;;;;5071233;28;20092;-65
2021/03/04 15:15:33;;;;;;;14.63;7.25;;;;;;;;;;5057835;28;20336;-67
2021/03/04 15:17:59;;;;;;;14.18;7.45;;;;;;;;;;5072174;28;20044;-66
2021/03/04 15:20:26;;;;;;;11.85;6.70;;;;;;;;;;5072518;28;20032;-66
2021/03/04 15:22:52;;;;;;;10.63;6.50;;;;;;;;;;5072404;28;20016;-68
2021/03/04 15:25:18;;;;;;;13.35;6.07;;;;;;;;;;5072034;28;20036;-68
2021/03/04 15:27:44;;;;;;;11.82;6.00;;;;;;;;;;5070893;28;20024;-66
2021/03/04 15:30:10;;;;;;;11.45;6.60;;;;;;;;;;5071273;28;20028;-67
2021/03/04 15:32:36;;;;;;;14.38;7.07;;;;;;;;;;5072568;28;20027;-66
2021/03/04 15:35:03;;;;;;;22.35;12.80;;;;;;;;;;5065769;28;20388;-67
2021/03/04 15:37:34;;;;;;;13.75;7.47;;;;;;;;;;5068801;28;20020;-66
2021/03/04 15:40:00;;;;;;;16.42;8.80;;;;;;;;;;5071104;28;20029;-68
2021/03/04 15:42:26;;;;;;;19.63;10.30;;;;;;;;;;5071040;28;20092;-65
2021/03/04 15:44:53;;;;;;;18.33;9.05;;;;;;;;;;5070707;28;20032;-66
2021/03/04 15:47:19;;;;;;;16.58;8.02;;;;;;;;;;5071906;28;20051;-64
2021/03/04 15:49:45;;;;;;;57.15;25.95;;;;;;;;;;5070374;28;20020;-64
2021/03/04 15:52:11;;;;;;;19.08;10.75;;;;;;;;;;5069667;28;20486;-65
2021/03/04 15:54:38;;;;;;;18.63;9.82;;;;;;;;;;5069729;28;20029;-65
2021/03/04 15:57:04;;;;;;;17.02;10.25;;;;;;;;;;5071888;28;20033;-66
2021/03/04 15:59:30;;;;;;;19.30;10.30;;;;;;;;;;5071012;28;20150;-64
2021/03/04 16:01:56;;;;;;;28.10;15.15;;;;;;;;;;5051189;28;20508;-66
2021/03/04 16:04:22;;;;;;;25.83;12.55;;;;;;;;;;5056093;28;20022;-64
2021/03/04 16:06:48;;;;;;;17.02;8.05;;;;;;;;;;5068429;28;20108;-65
2021/03/04 16:09:14;;;;;;;19.23;9.13;;;;;;;;;;5072333;28;20024;-66
2021/03/04 16:11:40;;;;;;;16.27;8.23;;;;;;;;;;5075230;28;20356;-65
2021/03/04 16:14:07;;;;;;;22.08;11.27;;;;;;;;;;5073823;28;20059;-64
2021/03/04 16:16:33;;;;;;;17.42;7.55;;;;;;;;;;5073676;28;20575;-65
2021/03/04 16:18:59;;;;;;;14.10;7.10;;;;;;;;;;5073420;28;20079;-70
2021/03/04 16:21:25;;;;;;;15.40;7.00;;;;;;;;;;5072892;28;20423;-65
2021/03/04 16:23:51;;;;;;;14.05;7.22;;;;;;;;;;5073156;28;20055;-65
2021/03/04 16:26:18;;;;;;;18.02;8.30;;;;;;;;;;5072737;28;20052;-65
2021/03/04 16:28:44;;;;;;;21.00;9.23;;;;;;;;;;5074615;28;20025;-65
2021/03/04 16:31:10;;;;;;;24.92;12.05;;;;;;;;;;5074536;28;20020;-65
2021/03/04 16:33:36;;;;;;;23.10;11.63;;;;;;;;;;5074609;28;20028;-65
2021/03/04 16:36:02;;;;;;;40.67;18.75;;;;;;;;;;5074302;28;20055;-65
2021/03/04 16:38:28;;;;;;;34.22;16.73;;;;;;;;;;5074145;28;20031;-65
2021/03/04 16:40:54;;;;;;;32.10;16.48;;;;;;;;;;5074031;28;20472;-66
2021/03/04 16:43:20;;;;;;;29.67;14.55;;;;;;;;;;5074332;28;20028;-67
2021/03/04 16:45:47;;;;;;;39.72;20.88;;;;;;;;;;5073475;28;20104;-65
2021/03/04 16:48:13;;;;;;;33.42;17.80;;;;;;;;;;5053886;28;20496;-70
2021/03/04 16:50:39;;;;;;;49.15;26.25;;;;;;;;;;5055139;28;20044;-65
2021/03/04 16:53:05;;;;;;;50.78;26.40;;;;;;;;;;5071923;28;20078;-70
2021/03/04 16:55:31;;;;;;;42.55;22.02;;;;;;;;;;5074445;28;20032;-67
2021/03/04 16:57:57;;;;;;;46.28;25.15;;;;;;;;;;5075388;28;20434;-68
2021/03/04 17:00:23;;;;;;;38.75;21.33;;;;;;;;;;5073808;28;20116;-70
2021/03/04 17:02:49;;;;;;;35.75;20.58;;;;;;;;;;5074150;28;20035;-67
2021/03/04 17:05:16;;;;;;;36.67;20.90;;;;;;;;;;5074281;28;20353;-67
2021/03/04 17:07:42;;;;;;;60.55;30.33;;;;;;;;;;5073096;28;20021;-68
2021/03/04 17:10:08;;;;;;;32.70;17.30;;;;;;;;;;5073700;28;20103;-67
2021/03/04 17:12:35;;;;;;;31.92;17.70;;;;;;;;;;5073328;28;20029;-68
2021/03/04 17:15:01;;;;;;;51.42;27.85;;;;;;;;;;5073615;28;20074;-67
2021/03/04 17:17:27;;;;;;;53.25;29.48;;;;;;;;;;5074428;28;20495;-68
2021/03/04 17:19:53;;;;;;;55.30;29.73;;;;;;;;;;5074012;28;20100;-71
2021/03/04 17:22:19;;;;;;;67.68;33.03;;;;;;;;;;5073917;28;20024;-68
2021/03/04 17:24:45;;;;;;;61.80;30.77;;;;;;;;;;5071547;28;20045;-69
2021/03/04 17:27:11;;;;;;;51.60;28.67;;;;;;;;;;5074200;28;20020;-67
2021/03/04 17:29:38;;;;;;;57.58;29.33;;;;;;;;;;5074186;28;20027;-67
2021/03/04 17:32:04;;;;;;;54.50;28.33;;;;;;;;;;5074336;28;20458;-68
2021/03/04 17:34:30;;;;;;;58.65;31.17;;;;;;;;;;5074590;28;20059;-68
2021/03/04 17:36:57;;;;;;;65.80;35.75;;;;;;;;;;5074561;28;20032;-68
2021/03/04 17:39:23;;;;;;;62.90;35.85;;;;;;;;;;5072618;28;20789;-70
2021/03/04 17:41:50;;;;;;;52.33;29.85;;;;;;;;;;5053285;28;20463;-69
2021/03/04 17:44:16;;;;;;;58.47;30.15;;;;;;;;;;5052158;28;20020;-70
2021/03/04 17:46:42;;;;;;;48.85;27.55;;;;;;;;;;5071060;28;20107;-69
2021/03/04 17:49:08;;;;;;;38.60;18.80;;;;;;;;;;5053495;28;20155;-68
2021/03/04 17:51:38;;;;;;;39.33;21.25;;;;;;;;;;5073630;28;20031;-66
2021/03/04 17:54:04;;;;;;;47.08;23.38;;;;;;;;;;5073074;28;20029;-70
2021/03/04 17:56:34;;;;;;;45.00;23.10;;;;;;;;;;5052805;28;20373;-66
2021/03/04 17:59:00;;;;;;;52.55;26.63;;;;;;;;;;5053241;28;20028;-68
2021/03/04 18:01:27;;;;;;;53.00;28.98;;;;;;;;;;5070831;28;20029;-67
2021/03/04 18:03:53;;;;;;;44.38;22.80;;;;;;;;;;5055876;28;20033;-68
2021/03/04 18:06:20;;;;;;;44.92;22.35;;;;;;;;;;5073903;28;20032;-68
2021/03/04 18:08:46;;;;;;;44.58;22.90;;;;;;;;;;5073467;28;20498;-67
2021/03/04 18:11:12;;;;;;;48.45;24.58;;;;;;;;;;5073232;28;20464;-68
2021/03/04 18:13:39;;;;;;;50.50;24.33;;;;;;;;;;5072513;28;20495;-67
2021/03/04 18:16:06;;;;;;;47.67;24.65;;;;;;;;;;5073452;28;20094;-68
2021/03/04 18:18:33;;;;;;;48.85;25.48;;;;;;;;;;5073836;28;20102;-68
2021/03/04 18:20:59;;;;;;;45.80;23.50;;;;;;;;;;5074217;28;20021;-68
2021/03/04 18:23:25;;;;;;;50.10;25.83;;;;;;;;;;5073959;28;20028;-70
2021/03/04 18:25:51;;;;;;;51.30;24.70;;;;;;;;;;5055536;28;20036;-69
2021/03/04 18:28:18;;;;;;;49.45;26.73;;;;;;;;;;5074066;28;20032;-67
2021/03/04 18:30:44;;;;;;;59.35;31.13;;;;;;;;;;5056783;28;20446;-66
2021/03/04 18:33:10;;;;;;;56.50;30.52;;;;;;;;;;5072789;28;20024;-66
2021/03/04 18:35:36;;;;;;;61.55;32.92;;;;;;;;;;5073511;28;20031;-69
2021/03/04 18:38:02;;;;;;;61.65;31.17;;;;;;;;;;5073735;28;20074;-69
2021/03/04 18:40:28;;;;;;;64.82;32.40;;;;;;;;;;5073529;28;20032;-68
2021/03/04 18:42:56;;;;;;;58.92;31.90;;;;;;;;;;5074085;28;20025;-68
2021/03/04 18:45:22;;;;;;;72.10;36.42;;;;;;;;;;5073450;28;20028;-67
2021/03/04 18:47:48;;;;;;;64.18;33.83;;;;;;;;;;5055731;28;20056;-67
2021/03/04 18:50:15;;;;;;;58.03;30.63;;;;;;;;;;5073693;28;20029;-69
2021/03/04 18:52:41;;;;;;;53.80;29.92;;;;;;;;;;5073528;28;20029;-67
2021/03/04 18:55:08;;;;;;;64.80;30.33;;;;;;;;;;5056518;28;20364;-67
2021/03/04 18:57:34;;;;;;;57.78;30.00;;;;;;;;;;5055703;28;20054;-68
2021/03/04 19:00:00;;;;;;;49.08;25.70;;;;;;;;;;5073070;28;20487;-69
2021/03/04 19:02:27;;;;;;;54.20;27.88;;;;;;;;;;5056218;28;20079;-67
2021/03/04 19:04:53;;;;;;;52.92;27.35;;;;;;;;;;5073685;28;20031;-68
2021/03/04 19:07:19;;;;;;;54.13;27.85;;;;;;;;;;5073254;28;20033;-69
2021/03/04 19:09:45;;;;;;;76.18;35.25;;;;;;;;;;5055482;28;20027;-67
2021/03/04 19:12:11;;;;;;;75.57;36.13;;;;;;;;;;5073477;28;20024;-67
2021/03/04 19:14:38;;;;;;;71.68;37.50;;;;;;;;;;5072962;28;20384;-67
2021/03/04 19:17:05;;;;;;;86.88;42.78;;;;;;;;;;5073230;28;20037;-66
2021/03/04 19:19:31;;;;;;;92.50;46.65;;;;;;;;;;5073550;28;20021;-68
2021/03/04 19:21:57;;;;;;;88.28;43.25;;;;;;;;;;5073146;28;20021;-68
2021/03/04 19:24:23;;;;;;;84.35;41.45;;;;;;;;;;5072758;28;20021;-68
2021/03/04 19:26:49;;;;;;;82.97;40.08;;;;;;;;;;5073436;28;20046;-69
2021/03/04 19:29:15;;;;;;;83.88;40.72;;;;;;;;;;5055094;28;20545;-68
2021/03/04 19:31:42;;;;;;;77.82;38.17;;;;;;;;;;5073090;28;20387;-69
2021/03/04 19:34:08;;;;;;;59.38;31.75;;;;;;;;;;5072966;28;20028;-69
2021/03/04 19:36:34;;;;;;;69.63;34.95;;;;;;;;;;5073083;28;20423;-68
2021/03/04 19:39:00;;;;;;;79.00;37.10;;;;;;;;;;5055256;28;20032;-68
2021/03/04 19:41:26;;;;;;;69.07;34.78;;;;;;;;;;5054997;28;20110;-68
2021/03/04 19:43:52;;;;;;;73.47;36.70;;;;;;;;;;5073374;28;20375;-69
2021/03/04 19:46:18;;;;;;;82.30;41.55;;;;;;;;;;5076548;28;20082;-69
2021/03/04 19:48:44;;;;;;;86.65;44.72;;;;;;;;;;5076758;28;20039;-69
2021/03/04 19:51:10;;;;;;;89.13;42.83;;;;;;;;;;5059474;28;20116;-67
2021/03/04 19:53:37;;;;;;;91.82;44.88;;;;;;;;;;5058966;28;20016;-68
2021/03/04 19:56:03;;;;;;;90.57;43.13;;;;;;;;;;5076409;28;20389;-68
2021/03/04 19:58:29;;;;;;;85.75;42.08;;;;;;;;;;5076557;28;20099;-67
2021/03/04 20:00:55;;;;;;;81.18;39.65;;;;;;;;;;5076437;28;20016;-68
2021/03/04 20:03:21;;;;;;;71.90;37.17;;;;;;;;;;5076305;28;20029;-69
2021/03/04 20:05:47;;;;;;;77.80;39.38;;;;;;;;;;5059086;28;20317;-68
2021/03/04 20:08:13;;;;;;;83.20;39.35;;;;;;;;;;5076291;28;20024;-67
2021/03/04 20:10:40;;;;;;;84.03;40.92;;;;;;;;;;5076249;28;20033;-68
2021/03/04 20:13:06;;;;;;;74.15;37.15;;;;;;;;;;5076542;28;20154;-68
2021/03/04 20:15:33;;;;;;;83.60;41.85;;;;;;;;;;5076497;28;20032;-69
2021/03/04 20:18:00;;;;;;;81.28;39.47;;;;;;;;;;5057816;28;20045;-68
2021/03/04 20:20:26;;;;;;;73.97;39.17;;;;;;;;;;5076674;28;20032;-68
2021/03/04 20:22:52;;;;;;;77.57;39.97;;;;;;;;;;5076125;28;20418;-67
2021/03/04 20:25:18;;;;;;;76.03;39.35;;;;;;;;;;5057993;28;20032;-67
2021/03/04 20:27:44;;;;;;;77.70;40.67;;;;;;;;;;5076583;28;20043;-68
2021/03/04 20:30:11;;;;;;;78.38;38.83;;;;;;;;;;5058018;28;20439;-67
2021/03/04 20:32:37;;;;;;;83.75;42.15;;;;;;;;;;5058273;28;20021;-68
2021/03/04 20:35:04;;;;;;;88.65;43.03;;;;;;;;;;5076723;28;20070;-68
2021/03/04 20:37:30;;;;;;;88.65;43.53;;;;;;;;;;5076062;28;20368;-67